createdAt,value
2019-05-20T00:00:45.829Z,80.77
2019-05-20T00:01:45.811Z,80.58
2019-05-20T00:02:45.812Z,80.58
2019-05-20T00:03:45.789Z,81.06
2019-05-20T00:04:45.768Z,80.58
2019-05-20T00:05:45.769Z,80.68
2019-05-20T00:06:45.737Z,81.21
2019-05-20T00:07:45.717Z,81.21
2019-05-20T00:08:45.701Z,81.21
2019-05-20T00:09:45.689Z,81.21
2019-05-20T00:10:45.677Z,80.83
2019-05-20T00:11:45.671Z,80.83
2019-05-20T00:12:45.648Z,81.02
2019-05-20T00:13:45.631Z,81.02
2019-05-20T00:14:45.611Z,81.30
2019-05-20T00:15:45.596Z,81.59
2019-05-20T00:16:45.585Z,81.40
2019-05-20T00:17:45.574Z,81.59
2019-05-20T00:18:45.569Z,81.59
2019-05-20T00:19:45.559Z,81.40
2019-05-20T00:20:45.522Z,81.49
2019-05-20T00:21:45.509Z,81.59
2019-05-20T00:22:45.490Z,81.49
2019-05-20T00:23:45.476Z,81.68
2019-05-20T00:24:45.463Z,81.88
2019-05-20T00:25:45.439Z,81.97
2019-05-20T00:26:45.427Z,82.26
2019-05-20T00:27:45.420Z,82.12
2019-05-20T00:28:45.397Z,82.03
2019-05-20T00:29:45.389Z,82.03
2019-05-20T00:30:45.393Z,81.84
2019-05-20T00:31:45.356Z,81.93
2019-05-20T00:32:45.329Z,82.41
2019-05-20T00:33:45.326Z,82.31
2019-05-20T00:34:45.304Z,82.21
2019-05-20T00:35:45.289Z,82.50
2019-05-20T00:36:45.269Z,82.31
2019-05-20T00:37:45.257Z,82.41
2019-05-20T00:38:45.258Z,82.31
2019-05-20T00:39:45.270Z,81.84
2019-05-20T00:40:45.216Z,82.31
2019-05-20T00:41:45.199Z,82.69
2019-05-20T00:42:45.189Z,82.31
2019-05-20T00:43:45.166Z,82.50
2019-05-20T00:44:45.171Z,82.69
2019-05-20T00:45:45.132Z,82.50
2019-05-20T00:46:45.118Z,82.21
2019-05-20T00:47:45.109Z,82.18
2019-05-20T00:48:45.087Z,82.46
2019-05-20T00:49:45.079Z,82.18
2019-05-20T00:50:45.058Z,82.27
2019-05-20T00:51:45.061Z,82.08
2019-05-20T00:52:45.048Z,82.93
2019-05-20T00:53:45.023Z,82.89
2019-05-20T00:54:44.993Z,82.84
2019-05-20T00:55:44.981Z,83.13
2019-05-20T00:56:44.972Z,82.84
2019-05-20T00:57:45.032Z,82.84
2019-05-20T00:58:45.002Z,82.84
2019-05-20T00:59:44.988Z,82.84
2019-05-20T01:00:44.922Z,82.93
2019-05-20T01:01:44.881Z,83.22
2019-05-20T01:02:56.561Z,82.93
2019-05-20T01:03:44.850Z,83.03
2019-05-20T01:04:44.829Z,83.22
2019-05-20T01:05:44.834Z,83.22
2019-05-20T01:06:44.809Z,83.32
2019-05-20T01:07:44.794Z,83.13
2019-05-20T01:08:44.783Z,83.70
2019-05-20T01:09:44.753Z,83.41
2019-05-20T01:10:44.740Z,83.51
2019-05-20T01:11:44.740Z,83.13
2019-05-20T01:12:44.705Z,83.61
2019-05-20T01:13:44.703Z,83.80
2019-05-20T01:14:44.688Z,83.80
2019-05-20T01:15:44.666Z,83.89
2019-05-20T01:16:44.650Z,83.80
2019-05-20T01:17:44.627Z,83.41
2019-05-20T01:18:44.615Z,83.80
2019-05-20T01:19:44.595Z,83.80
2019-05-20T01:20:44.582Z,83.61
2019-05-20T01:21:44.567Z,83.94
2019-05-20T01:22:44.550Z,84.08
2019-05-20T01:23:44.533Z,83.98
2019-05-20T01:24:44.541Z,83.80
2019-05-20T01:25:44.507Z,84.13
2019-05-20T01:26:44.516Z,84.42
2019-05-20T01:27:44.489Z,84.13
2019-05-20T01:28:44.453Z,84.13
2019-05-20T01:29:44.441Z,84.13
2019-05-20T01:30:44.425Z,83.75
2019-05-20T01:31:44.404Z,83.94
2019-05-20T01:32:44.406Z,84.13
2019-05-20T01:33:44.373Z,84.13
2019-05-20T01:34:44.362Z,84.04
2019-05-20T01:35:44.341Z,84.13
2019-05-20T01:36:44.328Z,84.42
2019-05-20T01:37:44.310Z,84.23
2019-05-20T01:38:44.292Z,84.33
2019-05-20T01:39:44.288Z,84.42
2019-05-20T01:40:44.263Z,84.61
2019-05-20T01:41:44.250Z,84.52
2019-05-20T01:42:44.227Z,84.33
2019-05-20T01:43:44.216Z,84.61
2019-05-20T01:44:44.211Z,84.61
2019-05-20T01:45:44.195Z,84.61
2019-05-20T01:46:44.174Z,84.70
2019-05-20T01:47:44.162Z,84.89
2019-05-20T01:48:44.137Z,84.89
2019-05-20T01:49:44.120Z,84.52
2019-05-20T01:50:44.102Z,85.18
2019-05-20T01:51:44.089Z,85.08
2019-05-20T01:52:44.084Z,85.08
2019-05-20T01:53:44.056Z,84.99
2019-05-20T01:54:44.055Z,85.08
2019-05-20T01:55:44.020Z,84.80
2019-05-20T01:56:44.018Z,84.89
2019-05-20T01:57:43.994Z,84.80
2019-05-20T01:58:43.987Z,84.89
2019-05-20T01:59:43.962Z,84.80
2019-05-20T02:00:43.951Z,84.99
2019-05-20T02:01:43.929Z,84.70
2019-05-20T02:02:43.903Z,84.80
2019-05-20T02:03:43.893Z,84.89
2019-05-20T02:04:43.879Z,84.99
2019-05-20T02:05:43.867Z,85.08
2019-05-20T02:06:43.851Z,84.99
2019-05-20T02:07:43.845Z,84.99
2019-05-20T02:08:43.817Z,85.18
2019-05-20T02:09:43.795Z,85.37
2019-05-20T02:10:43.782Z,85.37
2019-05-20T02:11:43.761Z,85.37
2019-05-20T02:12:43.742Z,85.66
2019-05-20T02:13:43.741Z,85.28
2019-05-20T02:14:43.717Z,85.28
2019-05-20T02:15:43.701Z,85.47
2019-05-20T02:16:43.685Z,85.56
2019-05-20T02:17:43.671Z,85.56
2019-05-20T02:18:43.654Z,85.37
2019-05-20T02:19:43.630Z,85.18
2019-05-20T02:20:43.622Z,85.47
2019-05-20T02:21:43.610Z,85.56
2019-05-20T02:22:43.594Z,85.66
2019-05-20T02:23:43.574Z,85.75
2019-05-20T02:24:43.561Z,85.37
2019-05-20T02:25:46.704Z,85.47
2019-05-20T02:26:43.526Z,85.47
2019-05-20T02:27:43.512Z,86.04
2019-05-20T02:28:43.499Z,85.94
2019-05-20T02:29:43.488Z,86.13
2019-05-20T02:30:43.475Z,85.47
2019-05-20T02:31:43.452Z,85.85
2019-05-20T02:32:43.432Z,85.37
2019-05-20T02:33:51.748Z,85.28
2019-05-20T02:34:43.416Z,85.94
2019-05-20T02:35:43.384Z,86.04
2019-05-20T02:36:43.361Z,85.94
2019-05-20T02:37:43.352Z,85.75
2019-05-20T02:38:43.335Z,85.94
2019-05-20T02:39:43.311Z,85.75
2019-05-20T02:40:43.302Z,85.66
2019-05-20T02:41:43.282Z,85.85
2019-05-20T02:42:43.259Z,85.75
2019-05-20T02:43:43.252Z,85.85
2019-05-20T02:44:53.428Z,85.75
2019-05-20T02:46:50.228Z,86.04
2019-05-20T02:47:50.202Z,85.66
2019-05-20T02:50:01.759Z,86.13
2019-05-20T02:51:01.743Z,85.94
2019-05-20T02:53:10.847Z,85.85
2019-05-20T02:54:10.823Z,86.22
2019-05-20T02:56:19.753Z,86.13
2019-05-20T02:57:19.746Z,86.13
2019-05-20T02:58:19.743Z,86.22
2019-05-20T02:59:19.709Z,86.32
2019-05-20T03:00:19.712Z,86.42
2019-05-20T03:01:21.987Z,86.32
2019-05-20T03:02:19.652Z,86.42
2019-05-20T03:03:19.637Z,86.22
2019-05-20T03:04:19.625Z,86.13
2019-05-20T03:05:19.618Z,86.13
2019-05-20T03:06:19.597Z,86.13
2019-05-20T03:07:19.563Z,86.22
2019-05-20T03:08:19.559Z,86.13
2019-05-20T03:09:19.550Z,86.32
2019-05-20T03:10:19.521Z,86.13
2019-05-20T03:11:19.508Z,86.22
2019-05-20T03:12:19.489Z,86.22
2019-05-20T03:13:19.501Z,86.32
2019-05-20T03:14:19.458Z,86.42
2019-05-20T03:15:19.440Z,86.42
2019-05-20T03:16:19.426Z,86.70
2019-05-20T03:17:19.411Z,86.70
2019-05-20T03:18:19.405Z,86.70
2019-05-20T03:19:19.410Z,86.66
2019-05-20T03:20:19.386Z,86.57
2019-05-20T03:21:19.345Z,86.47
2019-05-20T03:22:19.348Z,86.66
2019-05-20T03:23:19.317Z,86.38
2019-05-20T03:24:19.292Z,86.38
2019-05-20T03:25:19.314Z,86.85
2019-05-20T03:26:19.260Z,86.94
2019-05-20T03:27:19.245Z,86.76
2019-05-20T03:28:19.226Z,86.94
2019-05-20T03:29:19.210Z,86.94
2019-05-20T03:30:19.207Z,86.94
2019-05-20T03:31:19.182Z,86.57
2019-05-20T03:32:19.159Z,86.57
2019-05-20T03:33:19.158Z,86.70
2019-05-20T03:34:44.167Z,86.57
2019-05-20T03:35:19.120Z,86.94
2019-05-20T03:36:19.101Z,86.94
2019-05-20T03:37:19.088Z,86.66
2019-05-20T03:38:19.070Z,86.85
2019-05-20T03:39:19.044Z,86.66
2019-05-20T03:40:19.027Z,87.37
2019-05-20T03:41:19.039Z,87.32
2019-05-20T03:42:19.004Z,87.18
2019-05-20T03:43:18.986Z,87.23
2019-05-20T03:44:18.970Z,87.42
2019-05-20T03:45:18.950Z,87.32
2019-05-20T03:46:18.934Z,87.13
2019-05-20T03:47:18.926Z,87.13
2019-05-20T03:48:18.904Z,87.13
2019-05-20T03:49:18.957Z,87.13
2019-05-20T03:50:18.867Z,87.27
2019-05-20T03:51:18.872Z,87.23
2019-05-20T03:52:18.839Z,87.23
2019-05-20T03:53:18.817Z,87.23
2019-05-20T03:54:18.815Z,87.23
2019-05-20T03:55:18.795Z,87.65
2019-05-20T03:56:18.767Z,87.65
2019-05-20T03:57:18.755Z,87.56
2019-05-20T03:58:18.761Z,87.56
2019-05-20T03:59:18.741Z,87.56
2019-05-20T04:00:18.716Z,87.75
2019-05-20T04:01:18.707Z,87.65
2019-05-20T04:02:18.669Z,87.27
2019-05-20T04:03:18.707Z,87.37
2019-05-20T04:04:18.701Z,87.56
2019-05-20T04:05:18.622Z,87.75
2019-05-20T04:06:18.609Z,87.65
2019-05-20T04:07:18.594Z,87.37
2019-05-20T04:08:18.573Z,87.37
2019-05-20T04:09:18.563Z,87.46
2019-05-20T04:10:18.544Z,87.46
2019-05-20T04:11:18.530Z,87.37
2019-05-20T04:12:18.511Z,87.75
2019-05-20T04:13:18.498Z,87.65
2019-05-20T04:14:18.481Z,87.37
2019-05-20T04:15:18.480Z,87.37
2019-05-20T04:16:18.451Z,87.18
2019-05-20T04:17:18.453Z,87.56
2019-05-20T04:18:18.431Z,87.37
2019-05-20T04:19:18.396Z,87.37
2019-05-20T04:20:18.379Z,87.37
2019-05-20T04:21:18.359Z,87.08
2019-05-20T04:22:18.356Z,87.46
2019-05-20T04:23:18.335Z,87.75
2019-05-20T04:24:18.313Z,87.85
2019-05-20T04:25:18.338Z,87.85
2019-05-20T04:26:18.304Z,87.98
2019-05-20T04:27:18.277Z,87.89
2019-05-20T04:28:18.255Z,87.89
2019-05-20T04:29:18.239Z,87.89
2019-05-20T04:30:19.146Z,87.60
2019-05-20T04:31:18.209Z,87.70
2019-05-20T04:32:18.184Z,87.79
2019-05-20T04:33:18.172Z,87.79
2019-05-20T04:34:18.179Z,87.79
2019-05-20T04:35:22.906Z,87.60
2019-05-20T04:36:18.147Z,87.89
2019-05-20T04:37:18.117Z,87.98
2019-05-20T04:38:18.096Z,87.98
2019-05-20T04:39:18.079Z,87.98
2019-05-20T04:40:18.066Z,88.08
2019-05-20T04:41:18.039Z,88.18
2019-05-20T04:42:18.027Z,88.18
2019-05-20T04:43:18.018Z,88.12
2019-05-20T04:44:17.997Z,88.03
2019-05-20T04:45:17.983Z,88.12
2019-05-20T04:46:17.967Z,88.03
2019-05-20T04:47:17.974Z,88.22
2019-05-20T04:48:17.954Z,87.65
2019-05-20T04:49:17.931Z,87.65
2019-05-20T04:50:17.905Z,88.12
2019-05-20T04:51:17.908Z,88.03
2019-05-20T04:52:17.870Z,87.98
2019-05-20T04:53:17.851Z,88.07
2019-05-20T04:54:17.840Z,87.69
2019-05-20T04:55:17.852Z,88.07
2019-05-20T04:56:17.812Z,87.98
2019-05-20T04:57:17.826Z,87.98
2019-05-20T04:58:17.778Z,87.98
2019-05-20T04:59:17.758Z,87.69
2019-05-20T05:00:17.743Z,88.17
2019-05-20T05:01:17.745Z,88.21
2019-05-20T05:02:17.722Z,88.21
2019-05-20T05:03:17.707Z,88.12
2019-05-20T05:04:17.689Z,87.93
2019-05-20T05:05:17.665Z,88.31
2019-05-20T05:06:17.673Z,88.31
2019-05-20T05:07:17.682Z,87.74
2019-05-20T05:08:17.648Z,87.54
2019-05-20T05:09:17.625Z,87.83
2019-05-20T05:10:17.633Z,87.78
2019-05-20T05:11:17.575Z,87.78
2019-05-20T05:12:17.560Z,87.40
2019-05-20T05:13:17.555Z,87.59
2019-05-20T05:14:17.540Z,87.49
2019-05-20T05:15:17.518Z,87.68
2019-05-20T05:16:17.505Z,87.49
2019-05-20T05:17:17.498Z,87.30
2019-05-20T05:18:17.474Z,87.59
2019-05-20T05:19:17.474Z,87.40
2019-05-20T05:20:18.655Z,87.78
2019-05-20T05:21:17.452Z,86.92
2019-05-20T05:22:17.428Z,86.82
2019-05-20T05:23:17.404Z,87.06
2019-05-20T05:24:17.383Z,86.96
2019-05-20T05:25:17.387Z,87.06
2019-05-20T05:26:17.354Z,87.06
2019-05-20T05:27:17.355Z,87.25
2019-05-20T05:28:17.337Z,86.96
2019-05-20T05:29:17.333Z,87.25
2019-05-20T05:30:17.300Z,87.35
2019-05-20T05:31:17.284Z,86.77
2019-05-20T05:32:17.270Z,86.68
2019-05-20T05:33:17.248Z,86.87
2019-05-20T05:34:17.257Z,86.72
2019-05-20T05:35:17.230Z,86.53
2019-05-20T05:36:17.206Z,86.63
2019-05-20T05:37:17.207Z,86.72
2019-05-20T05:38:17.193Z,86.43
2019-05-20T05:39:17.186Z,86.63
2019-05-20T05:40:17.152Z,86.05
2019-05-20T05:41:17.136Z,86.34
2019-05-20T05:42:17.137Z,86.82
2019-05-20T05:43:17.109Z,86.82
2019-05-20T05:44:17.096Z,86.43
2019-05-20T05:45:17.105Z,86.10
2019-05-20T05:46:17.077Z,86.10
2019-05-20T05:47:17.055Z,86.38
2019-05-20T05:48:17.042Z,86.10
2019-05-20T05:49:17.045Z,86.10
2019-05-20T05:50:17.011Z,85.62
2019-05-20T05:51:17.003Z,85.71
2019-05-20T05:52:16.978Z,85.33
2019-05-20T05:53:16.986Z,85.62
2019-05-20T05:54:16.957Z,85.71
2019-05-20T05:55:16.967Z,85.38
2019-05-20T05:56:16.928Z,85.66
2019-05-20T05:57:16.928Z,85.57
2019-05-20T05:58:16.922Z,85.38
2019-05-20T05:59:16.891Z,85.09
2019-05-20T06:00:16.867Z,85.38
2019-05-20T06:01:16.862Z,85.09
2019-05-20T06:02:16.848Z,85.47
2019-05-20T06:03:16.825Z,84.99
2019-05-20T06:04:16.816Z,84.80
2019-05-20T06:05:16.805Z,84.61
2019-05-20T06:06:16.810Z,84.80
2019-05-20T06:07:16.773Z,84.70
2019-05-20T06:08:16.762Z,84.75
2019-05-20T06:09:16.751Z,84.27
2019-05-20T06:10:16.756Z,84.27
2019-05-20T06:11:16.741Z,84.46
2019-05-20T06:12:16.706Z,83.60
2019-05-20T06:13:16.699Z,84.17
2019-05-20T06:14:16.677Z,83.79
2019-05-20T06:15:16.659Z,83.79
2019-05-20T06:16:16.647Z,84.17
2019-05-20T06:17:16.641Z,83.89
2019-05-20T06:18:16.622Z,83.69
2019-05-20T06:19:16.669Z,83.40
2019-05-20T06:20:16.602Z,83.03
2019-05-20T06:21:16.585Z,83.26
2019-05-20T06:22:16.575Z,83.36
2019-05-20T06:23:16.561Z,83.26
2019-05-20T06:24:16.551Z,82.87
2019-05-20T06:25:16.534Z,82.87
2019-05-20T06:26:16.522Z,82.97
2019-05-20T06:27:16.511Z,82.68
2019-05-20T06:28:16.504Z,82.97
2019-05-20T06:29:16.483Z,82.68
2019-05-20T06:30:16.471Z,82.11
2019-05-20T06:31:16.452Z,82.49
2019-05-20T06:32:16.448Z,82.40
2019-05-20T06:33:16.433Z,82.40
2019-05-20T06:34:16.422Z,82.68
2019-05-20T06:35:16.410Z,82.59
2019-05-20T06:36:26.521Z,82.49
2019-05-20T06:37:16.374Z,82.49
2019-05-20T06:38:16.384Z,82.30
2019-05-20T06:39:16.350Z,82.01
2019-05-20T06:40:16.363Z,81.92
2019-05-20T06:41:16.350Z,81.73
2019-05-20T06:42:16.333Z,81.96
2019-05-20T06:43:16.298Z,81.77
2019-05-20T06:44:16.323Z,81.96
2019-05-20T06:45:16.269Z,81.57
2019-05-20T06:46:16.259Z,81.48
2019-05-20T06:47:16.261Z,81.57
2019-05-20T06:48:16.229Z,81.20
2019-05-20T06:49:16.253Z,81.34
2019-05-20T06:50:16.276Z,81.57
2019-05-20T06:51:16.191Z,81.57
2019-05-20T06:52:16.186Z,81.20
2019-05-20T06:53:16.171Z,81.10
2019-05-20T06:54:16.151Z,81.00
2019-05-20T06:55:16.145Z,80.62
2019-05-20T06:56:16.136Z,80.24
2019-05-20T06:57:16.143Z,80.71
2019-05-20T06:58:16.109Z,80.71
2019-05-20T06:59:16.117Z,80.24
2019-05-20T07:00:16.087Z,79.95
2019-05-20T07:01:16.070Z,80.04
2019-05-20T07:02:16.055Z,80.04
2019-05-20T07:03:16.037Z,79.85
2019-05-20T07:04:16.033Z,80.04
2019-05-20T07:05:16.014Z,80.04
2019-05-20T07:06:16.014Z,80.14
2019-05-20T07:07:20.901Z,79.75
2019-05-20T07:08:15.991Z,80.47
2019-05-20T07:09:15.978Z,79.95
2019-05-20T07:10:15.962Z,79.70
2019-05-20T07:11:15.933Z,79.75
2019-05-20T07:12:15.950Z,79.60
2019-05-20T07:13:16.449Z,79.47
2019-05-20T07:14:15.903Z,79.89
2019-05-20T07:15:15.916Z,79.80
2019-05-20T07:16:15.873Z,79.80
2019-05-20T07:17:15.859Z,79.60
2019-05-20T07:18:15.851Z,79.60
2019-05-20T07:19:15.835Z,79.60
2019-05-20T07:20:15.839Z,79.75
2019-05-20T07:21:15.807Z,79.80
2019-05-20T07:22:15.795Z,79.85
2019-05-20T07:23:15.798Z,79.60
2019-05-20T07:24:15.785Z,79.57
2019-05-20T07:25:15.823Z,79.57
2019-05-20T07:26:15.740Z,79.75
2019-05-20T07:27:15.741Z,79.95
2019-05-20T07:28:15.724Z,79.85
2019-05-20T07:29:15.709Z,79.95
2019-05-20T07:30:15.887Z,79.22
2019-05-20T07:31:15.774Z,78.99
2019-05-20T07:32:15.672Z,79.13
2019-05-20T07:33:15.652Z,78.93
2019-05-20T07:34:15.662Z,79.22
2019-05-20T07:35:29.767Z,79.13
2019-05-20T07:36:15.648Z,79.13
2019-05-20T07:37:15.609Z,79.13
2019-05-20T07:38:15.595Z,79.03
2019-05-20T07:39:15.595Z,79.22
2019-05-20T07:40:15.561Z,78.64
2019-05-20T07:41:15.556Z,79.13
2019-05-20T07:42:15.540Z,78.74
2019-05-20T07:43:15.542Z,78.59
2019-05-20T07:44:15.519Z,78.69
2019-05-20T07:45:15.507Z,78.78
2019-05-20T07:46:15.515Z,78.59
2019-05-20T07:47:15.495Z,78.49
2019-05-20T07:48:15.467Z,78.40
2019-05-20T07:49:15.544Z,78.30
2019-05-20T07:50:15.435Z,78.20
2019-05-20T07:51:15.438Z,78.30
2019-05-20T07:52:15.487Z,78.49
2019-05-20T07:53:15.443Z,77.92
2019-05-20T07:54:15.399Z,77.92
2019-05-20T07:55:15.379Z,77.82
2019-05-20T07:56:15.369Z,77.82
2019-05-20T07:57:15.355Z,77.53
2019-05-20T07:58:15.344Z,77.73
2019-05-20T07:59:15.335Z,77.73
2019-05-20T08:00:15.333Z,77.82
2019-05-20T08:01:15.339Z,78.02
2019-05-20T08:02:15.304Z,77.82
2019-05-20T08:03:15.284Z,77.63
2019-05-20T08:04:15.306Z,77.73
2019-05-20T08:05:15.299Z,77.63
2019-05-20T08:06:15.245Z,77.82
2019-05-20T08:07:27.393Z,77.73
2019-05-20T08:08:15.219Z,77.25
2019-05-20T08:09:15.225Z,77.44
2019-05-20T08:10:15.195Z,77.53
2019-05-20T08:11:15.206Z,77.34
2019-05-20T08:12:15.167Z,77.67
2019-05-20T08:13:15.160Z,77.67
2019-05-20T08:14:15.159Z,76.90
2019-05-20T08:15:15.134Z,77.09
2019-05-20T08:16:15.131Z,77.00
2019-05-20T08:17:15.114Z,77.00
2019-05-20T08:18:15.100Z,76.90
2019-05-20T08:19:15.086Z,76.71
2019-05-20T08:20:15.074Z,76.81
2019-05-20T08:21:15.065Z,76.32
2019-05-20T08:22:15.056Z,76.75
2019-05-20T08:23:15.043Z,76.37
2019-05-20T08:24:15.033Z,76.56
2019-05-20T08:25:15.017Z,76.46
2019-05-20T08:26:15.002Z,76.50
2019-05-20T08:27:15.009Z,76.40
2019-05-20T08:28:14.983Z,75.96
2019-05-20T08:29:14.973Z,75.67
2019-05-20T08:30:14.964Z,75.71
2019-05-20T08:31:14.999Z,75.07
2019-05-20T08:32:14.935Z,75.07
2019-05-20T08:33:14.938Z,74.82
2019-05-20T08:34:14.976Z,74.57
2019-05-20T08:35:14.906Z,73.46
2019-05-20T08:36:14.910Z,72.33
2019-05-20T08:37:14.893Z,71.95
2019-05-20T08:38:14.896Z,70.44
2019-05-20T08:39:14.872Z,70.35
2019-05-20T08:40:14.865Z,70.00
2019-05-20T08:41:14.866Z,69.03
2019-05-20T08:42:14.860Z,68.87
2019-05-20T08:43:14.844Z,68.39
2019-05-20T08:44:14.830Z,68.87
2019-05-20T08:45:14.829Z,68.01
2019-05-20T08:46:14.814Z,67.85
2019-05-20T08:47:14.810Z,67.55
2019-05-20T08:48:14.803Z,66.78
2019-05-20T08:49:14.795Z,66.88
2019-05-20T08:50:16.325Z,66.59
2019-05-20T08:51:14.786Z,66.20
2019-05-20T08:52:14.775Z,66.49
2019-05-20T08:53:14.768Z,65.82
2019-05-20T08:54:14.766Z,65.82
2019-05-20T08:55:14.759Z,66.11
2019-05-20T08:56:14.759Z,65.91
2019-05-20T08:57:14.744Z,65.72
2019-05-20T08:58:14.746Z,65.56
2019-05-20T08:59:14.762Z,65.37
2019-05-20T09:00:14.747Z,64.79
2019-05-20T09:01:14.755Z,64.59
2019-05-20T09:02:14.730Z,64.92
2019-05-20T09:03:14.701Z,64.43
2019-05-20T09:04:14.717Z,63.85
2019-05-20T09:05:14.719Z,63.47
2019-05-20T09:06:14.707Z,63.28
2019-05-20T09:07:14.691Z,62.50
2019-05-20T09:08:14.685Z,62.79
2019-05-20T09:09:14.680Z,62.18
2019-05-20T09:10:18.047Z,62.02
2019-05-20T09:11:14.764Z,62.28
2019-05-20T09:12:14.712Z,61.99
2019-05-20T09:13:14.670Z,61.60
2019-05-20T09:14:14.739Z,61.51
2019-05-20T09:15:14.633Z,60.83
2019-05-20T09:16:14.748Z,61.19
2019-05-20T09:17:14.606Z,61.38
2019-05-20T09:18:14.724Z,61.38
2019-05-20T09:19:17.564Z,61.25
2019-05-20T09:20:14.619Z,61.16
2019-05-20T09:21:14.772Z,61.93
2019-05-20T09:22:14.618Z,62.12
2019-05-20T09:23:14.595Z,61.80
2019-05-20T09:24:18.469Z,61.71
2019-05-20T09:25:14.916Z,62.22
2019-05-20T09:26:14.549Z,62.12
2019-05-20T09:27:16.705Z,61.90
2019-05-20T09:28:14.527Z,62.38
2019-05-20T09:29:14.550Z,61.32
2019-05-20T09:30:14.565Z,61.68
2019-05-20T09:31:14.713Z,61.87
2019-05-20T09:32:14.552Z,62.15
2019-05-20T09:33:14.502Z,62.54
2019-05-20T09:34:14.542Z,62.63
2019-05-20T09:35:14.490Z,62.63
2019-05-20T09:36:14.477Z,62.35
2019-05-20T09:37:14.462Z,62.63
2019-05-20T09:38:19.953Z,62.15
2019-05-20T09:39:14.442Z,61.87
2019-05-20T09:40:14.451Z,61.96
2019-05-20T09:41:14.509Z,61.19
2019-05-20T09:42:14.419Z,61.29
2019-05-20T09:43:14.418Z,61.19
2019-05-20T09:44:14.422Z,61.48
2019-05-20T09:45:14.417Z,62.06
2019-05-20T09:46:14.407Z,61.93
2019-05-20T09:47:14.375Z,61.93
2019-05-20T09:48:14.372Z,62.03
2019-05-20T09:49:14.385Z,61.93
2019-05-20T09:50:14.370Z,62.38
2019-05-20T09:51:14.343Z,62.67
2019-05-20T09:52:14.331Z,62.57
2019-05-20T09:53:14.334Z,62.48
2019-05-20T09:54:14.313Z,62.70
2019-05-20T09:55:14.318Z,62.51
2019-05-20T09:56:14.316Z,62.70
2019-05-20T09:57:14.289Z,62.32
2019-05-20T09:58:14.276Z,62.70
2019-05-20T09:59:16.474Z,62.60
2019-05-20T10:00:14.260Z,62.22
2019-05-20T10:01:14.260Z,62.45
2019-05-20T10:02:14.251Z,62.35
2019-05-20T10:03:14.236Z,62.06
2019-05-20T10:04:14.251Z,62.15
2019-05-20T10:05:14.222Z,61.68
2019-05-20T10:06:14.213Z,61.51
2019-05-20T10:07:14.283Z,61.41
2019-05-20T10:08:14.199Z,60.93
2019-05-20T10:09:14.191Z,60.35
2019-05-20T10:10:14.196Z,60.26
2019-05-20T10:11:14.246Z,60.35
2019-05-20T10:12:14.167Z,60.55
2019-05-20T10:13:14.363Z,60.55
2019-05-20T10:14:14.158Z,60.61
2019-05-20T10:15:14.156Z,60.42
2019-05-20T10:16:14.142Z,60.42
2019-05-20T10:17:14.122Z,60.90
2019-05-20T10:18:14.111Z,60.77
2019-05-20T10:19:14.107Z,61.25
2019-05-20T10:20:14.125Z,61.55
2019-05-20T10:21:14.093Z,61.16
2019-05-20T10:22:14.098Z,61.65
2019-05-20T10:23:15.909Z,61.45
2019-05-20T10:24:14.066Z,61.74
2019-05-20T10:25:14.053Z,61.74
2019-05-20T10:26:14.049Z,61.93
2019-05-20T10:27:14.037Z,61.93
2019-05-20T10:28:14.052Z,62.22
2019-05-20T10:29:14.083Z,62.06
2019-05-20T10:30:14.018Z,61.58
2019-05-20T10:31:14.038Z,61.48
2019-05-20T10:32:14.011Z,61.38
2019-05-20T10:33:13.981Z,61.38
2019-05-20T10:34:13.975Z,61.29
2019-05-20T10:35:14.007Z,61.48
2019-05-20T10:36:13.958Z,61.10
2019-05-20T10:37:13.974Z,61.29
2019-05-20T10:38:13.947Z,61.19
2019-05-20T10:39:13.938Z,61.29
2019-05-20T10:40:13.930Z,61.00
2019-05-20T10:41:13.922Z,61.29
2019-05-20T10:42:13.906Z,61.38
2019-05-20T10:43:13.908Z,61.58
2019-05-20T10:44:13.895Z,61.55
2019-05-20T10:45:13.882Z,62.32
2019-05-20T10:46:13.871Z,61.83
2019-05-20T10:47:13.866Z,61.83
2019-05-20T10:48:13.862Z,62.41
2019-05-20T10:49:13.850Z,62.41
2019-05-20T10:50:13.833Z,62.38
2019-05-20T10:51:13.824Z,62.41
2019-05-20T10:52:13.840Z,62.38
2019-05-20T10:53:13.820Z,62.29
2019-05-20T10:54:13.798Z,62.57
2019-05-20T10:55:13.786Z,62.57
2019-05-20T10:56:14.202Z,62.67
2019-05-20T10:57:13.820Z,62.57
2019-05-20T10:58:13.767Z,62.48
2019-05-20T10:59:13.763Z,62.67
2019-05-20T11:00:13.756Z,62.67
2019-05-20T11:01:13.750Z,62.29
2019-05-20T11:02:13.750Z,62.38
2019-05-20T11:03:13.728Z,62.19
2019-05-20T11:04:13.724Z,62.29
2019-05-20T11:05:13.700Z,62.57
2019-05-20T11:06:13.721Z,62.38
2019-05-20T11:07:13.677Z,62.38
2019-05-20T11:08:13.672Z,62.32
2019-05-20T11:09:14.600Z,62.19
2019-05-20T11:10:13.669Z,62.38
2019-05-20T11:11:14.582Z,62.19
2019-05-20T11:12:13.664Z,62.48
2019-05-20T11:13:13.640Z,62.87
2019-05-20T11:14:13.617Z,62.67
2019-05-20T11:15:13.604Z,62.48
2019-05-20T11:16:13.594Z,63.06
2019-05-20T11:17:15.139Z,62.48
2019-05-20T11:18:13.573Z,62.87
2019-05-20T11:19:13.586Z,63.06
2019-05-20T11:20:13.581Z,62.96
2019-05-20T11:21:13.609Z,62.67
2019-05-20T11:22:13.540Z,62.57
2019-05-20T11:23:13.571Z,62.67
2019-05-20T11:24:13.523Z,62.57
2019-05-20T11:25:13.514Z,62.67
2019-05-20T11:26:13.590Z,62.77
2019-05-20T11:27:13.493Z,62.77
2019-05-20T11:28:13.479Z,62.77
2019-05-20T11:29:13.564Z,62.67
2019-05-20T11:30:13.457Z,62.77
2019-05-20T11:31:13.449Z,63.06
2019-05-20T11:32:13.438Z,63.34
2019-05-20T11:33:13.427Z,63.25
2019-05-20T11:34:13.427Z,63.70
2019-05-20T11:35:13.433Z,63.31
2019-05-20T11:36:13.399Z,63.22
2019-05-20T11:37:13.395Z,63.79
2019-05-20T11:38:13.423Z,63.79
2019-05-20T11:39:29.172Z,63.79
2019-05-20T11:40:13.780Z,64.28
2019-05-20T11:41:13.353Z,64.37
2019-05-20T11:42:13.352Z,64.37
2019-05-20T11:43:13.329Z,63.79
2019-05-20T11:44:13.337Z,63.99
2019-05-20T11:45:13.319Z,64.18
2019-05-20T11:46:13.302Z,63.79
2019-05-20T11:47:13.303Z,64.08
2019-05-20T11:48:13.283Z,63.99
2019-05-20T11:49:13.271Z,63.99
2019-05-20T11:50:13.262Z,63.99
2019-05-20T11:51:13.264Z,63.92
2019-05-20T11:52:13.237Z,63.79
2019-05-20T11:53:13.243Z,64.02
2019-05-20T11:54:13.223Z,63.92
2019-05-20T11:55:13.238Z,63.70
2019-05-20T11:56:13.213Z,63.79
2019-05-20T11:57:13.212Z,63.79
2019-05-20T11:58:16.080Z,64.18
2019-05-20T11:59:13.183Z,63.79
2019-05-20T12:00:13.164Z,63.79
2019-05-20T12:01:13.161Z,64.18
2019-05-20T12:02:13.179Z,64.15
2019-05-20T12:03:13.134Z,64.53
2019-05-20T12:04:13.118Z,64.43
2019-05-20T12:05:13.140Z,64.53
2019-05-20T12:06:13.112Z,65.01
2019-05-20T12:07:13.088Z,64.79
2019-05-20T12:08:13.118Z,65.17
2019-05-20T12:09:13.074Z,66.42
2019-05-20T12:10:13.064Z,67.16
2019-05-20T12:11:13.045Z,67.54
2019-05-20T12:12:13.035Z,67.74
2019-05-20T12:13:13.030Z,68.85
2019-05-20T12:14:13.016Z,70.01
2019-05-20T12:15:13.019Z,70.45
2019-05-20T12:16:13.013Z,71.22
2019-05-20T12:17:12.997Z,71.86
2019-05-20T12:18:12.974Z,72.91
2019-05-20T12:19:12.957Z,73.77
2019-05-20T12:20:12.985Z,74.12
2019-05-20T12:21:12.947Z,74.69
2019-05-20T12:22:12.928Z,75.27
2019-05-20T12:23:12.914Z,75.62
2019-05-20T12:24:12.902Z,76.67
2019-05-20T12:25:12.932Z,77.25
2019-05-20T12:26:12.881Z,77.92
2019-05-20T12:27:12.876Z,79.36
2019-05-20T12:28:12.856Z,80.22
2019-05-20T12:29:12.849Z,79.83
2019-05-20T12:30:12.838Z,80.41
2019-05-20T12:31:12.846Z,81.18
2019-05-20T12:32:12.804Z,81.75
2019-05-20T12:33:19.130Z,82.04
2019-05-20T12:34:12.793Z,82.71
2019-05-20T12:35:12.851Z,83.38
2019-05-20T12:36:12.766Z,84.34
2019-05-20T12:37:12.743Z,84.53
2019-05-20T12:38:12.733Z,84.82
2019-05-20T12:39:12.774Z,85.21
2019-05-20T12:40:12.728Z,85.88
2019-05-20T12:41:12.695Z,85.88
2019-05-20T12:42:12.716Z,86.35
2019-05-20T12:43:12.696Z,85.78
2019-05-20T12:44:13.184Z,86.35
2019-05-20T12:45:12.644Z,86.25
2019-05-20T12:46:12.655Z,86.35
2019-05-20T12:47:12.623Z,86.45
2019-05-20T12:48:12.735Z,86.45
2019-05-20T12:49:12.747Z,86.88
2019-05-20T12:50:12.591Z,86.88
2019-05-20T12:51:14.648Z,86.97
2019-05-20T12:52:12.562Z,87.16
2019-05-20T12:53:12.556Z,87.26
2019-05-20T12:54:12.539Z,87.07
2019-05-20T12:55:12.534Z,87.64
2019-05-20T12:56:12.518Z,88.22
2019-05-20T12:57:12.515Z,87.98